sensor_id;sensor_type;location;lat;lon;timestamp;P1;durP1;ratioP1;P2;durP2;ratioP2
29876;SDS011;16750;49.002;9.204;2022-08-11T00:01:07;4.32;;;1.95;;
29876;SDS011;16750;49.002;9.204;2022-08-11T00:03:41;4.90;;;1.33;;
29876;SDS011;16750;49.002;9.204;2022-08-11T00:06:10;3.33;;;1.25;;
29876;SDS011;16750;49.002;9.204;2022-08-11T00:08:38;3.05;;;1.30;;
29876;SDS011;16750;49.002;9.204;2022-08-11T00:11:05;2.83;;;1.60;;
29876;SDS011;16750;49.002;9.204;2022-08-11T00:13:34;4.47;;;1.67;;
29876;SDS011;16750;49.002;9.204;2022-08-11T00:16:02;4.70;;;1.50;;
29876;SDS011;16750;49.002;9.204;2022-08-11T00:18:45;5.07;;;1.50;;
29876;SDS011;16750;49.002;9.204;2022-08-11T00:21:13;4.18;;;1.50;;
29876;SDS011;16750;49.002;9.204;2022-08-11T00:23:40;3.13;;;1.23;;
29876;SDS011;16750;49.002;9.204;2022-08-11T00:26:07;2.78;;;1.40;;
29876;SDS011;16750;49.002;9.204;2022-08-11T00:28:34;2.83;;;1.52;;
29876;SDS011;16750;49.002;9.204;2022-08-11T00:31:02;3.10;;;1.50;;
29876;SDS011;16750;49.002;9.204;2022-08-11T00:33:33;5.78;;;1.67;;
29876;SDS011;16750;49.002;9.204;2022-08-11T00:36:02;3.47;;;1.35;;
29876;SDS011;16750;49.002;9.204;2022-08-11T00:38:30;6.45;;;1.90;;
29876;SDS011;16750;49.002;9.204;2022-08-11T00:41:17;4.80;;;1.73;;
29876;SDS011;16750;49.002;9.204;2022-08-11T00:44:14;4.30;;;2.28;;
29876;SDS011;16750;49.002;9.204;2022-08-11T00:50:07;4.70;;;1.60;;
29876;SDS011;16750;49.002;9.204;2022-08-11T01:09:46;3.72;;;1.70;;
29876;SDS011;16750;49.002;9.204;2022-08-11T01:28:57;3.25;;;1.67;;
29876;SDS011;16750;49.002;9.204;2022-08-11T01:45:25;4.35;;;1.90;;
29876;SDS011;16750;49.002;9.204;2022-08-11T01:59:34;3.95;;;1.60;;
29876;SDS011;16750;49.002;9.204;2022-08-11T02:05:30;5.47;;;1.60;;
29876;SDS011;16750;49.002;9.204;2022-08-11T02:08:09;3.95;;;2.00;;
29876;SDS011;16750;49.002;9.204;2022-08-11T02:10:54;3.70;;;1.70;;
29876;SDS011;16750;49.002;9.204;2022-08-11T02:14:28;4.22;;;2.08;;
29876;SDS011;16750;49.002;9.204;2022-08-11T02:17:13;3.03;;;2.00;;
29876;SDS011;16750;49.002;9.204;2022-08-11T02:31:12;4.05;;;2.00;;
29876;SDS011;16750;49.002;9.204;2022-08-11T02:34:08;6.05;;;1.98;;
29876;SDS011;16750;49.002;9.204;2022-08-11T02:39:51;3.50;;;1.80;;
29876;SDS011;16750;49.002;9.204;2022-08-11T02:42:34;3.70;;;1.80;;
29876;SDS011;16750;49.002;9.204;2022-08-11T02:47:45;4.40;;;2.25;;
29876;SDS011;16750;49.002;9.204;2022-08-11T02:50:41;4.45;;;2.00;;
29876;SDS011;16750;49.002;9.204;2022-08-11T02:56:18;4.47;;;2.13;;
29876;SDS011;16750;49.002;9.204;2022-08-11T03:01:44;3.10;;;2.22;;
29876;SDS011;16750;49.002;9.204;2022-08-11T03:04:24;4.10;;;2.10;;
29876;SDS011;16750;49.002;9.204;2022-08-11T03:07:05;4.15;;;1.90;;
29876;SDS011;16750;49.002;9.204;2022-08-11T03:09:43;6.35;;;2.45;;
29876;SDS011;16750;49.002;9.204;2022-08-11T03:12:29;2.97;;;1.88;;
29876;SDS011;16750;49.002;9.204;2022-08-11T03:15:21;6.00;;;1.92;;
29876;SDS011;16750;49.002;9.204;2022-08-11T03:18:50;3.47;;;2.03;;
29876;SDS011;16750;49.002;9.204;2022-08-11T03:21:31;4.53;;;2.20;;
29876;SDS011;16750;49.002;9.204;2022-08-11T03:24:07;3.00;;;1.90;;
29876;SDS011;16750;49.002;9.204;2022-08-11T03:26:43;6.07;;;2.10;;
29876;SDS011;16750;49.002;9.204;2022-08-11T03:29:22;5.03;;;2.20;;
29876;SDS011;16750;49.002;9.204;2022-08-11T03:32:01;5.13;;;2.20;;
29876;SDS011;16750;49.002;9.204;2022-08-11T03:34:47;3.85;;;2.03;;
29876;SDS011;16750;49.002;9.204;2022-08-11T03:46:13;5.90;;;2.17;;
29876;SDS011;16750;49.002;9.204;2022-08-11T03:48:55;3.58;;;2.20;;
29876;SDS011;16750;49.002;9.204;2022-08-11T03:51:37;4.75;;;2.13;;
29876;SDS011;16750;49.002;9.204;2022-08-11T03:54:21;5.68;;;1.95;;
29876;SDS011;16750;49.002;9.204;2022-08-11T04:02:44;6.43;;;2.40;;
29876;SDS011;16750;49.002;9.204;2022-08-11T04:08:34;4.57;;;2.30;;
29876;SDS011;16750;49.002;9.204;2022-08-11T04:11:10;4.75;;;2.72;;
29876;SDS011;16750;49.002;9.204;2022-08-11T04:17:16;4.60;;;2.58;;
29876;SDS011;16750;49.002;9.204;2022-08-11T04:20:22;6.05;;;2.63;;
29876;SDS011;16750;49.002;9.204;2022-08-11T04:31:35;5.72;;;2.40;;
29876;SDS011;16750;49.002;9.204;2022-08-11T04:36:40;4.53;;;2.50;;
29876;SDS011;16750;49.002;9.204;2022-08-11T04:45:44;4.95;;;2.58;;
29876;SDS011;16750;49.002;9.204;2022-08-11T04:51:14;5.85;;;2.80;;
29876;SDS011;16750;49.002;9.204;2022-08-11T05:00:51;7.20;;;2.70;;
29876;SDS011;16750;49.002;9.204;2022-08-11T05:12:51;7.25;;;3.22;;
29876;SDS011;16750;49.002;9.204;2022-08-11T05:15:40;9.95;;;3.08;;
29876;SDS011;16750;49.002;9.204;2022-08-11T05:18:32;7.65;;;2.95;;
29876;SDS011;16750;49.002;9.204;2022-08-11T05:21:17;11.77;;;3.13;;
29876;SDS011;16750;49.002;9.204;2022-08-11T05:24:13;8.23;;;2.97;;
29876;SDS011;16750;49.002;9.204;2022-08-11T05:27:02;10.77;;;3.28;;
29876;SDS011;16750;49.002;9.204;2022-08-11T05:30:08;8.60;;;3.47;;
29876;SDS011;16750;49.002;9.204;2022-08-11T05:33:14;6.40;;;3.08;;
29876;SDS011;16750;49.002;9.204;2022-08-11T05:36:11;7.75;;;3.53;;
29876;SDS011;16750;49.002;9.204;2022-08-11T05:38:50;7.07;;;3.38;;
29876;SDS011;16750;49.002;9.204;2022-08-11T05:41:39;6.05;;;3.30;;
29876;SDS011;16750;49.002;9.204;2022-08-11T05:44:24;7.27;;;3.43;;
29876;SDS011;16750;49.002;9.204;2022-08-11T05:47:19;5.65;;;3.22;;
29876;SDS011;16750;49.002;9.204;2022-08-11T05:50:07;8.73;;;3.38;;
29876;SDS011;16750;49.002;9.204;2022-08-11T05:52:56;6.55;;;3.13;;
29876;SDS011;16750;49.002;9.204;2022-08-11T05:55:42;8.27;;;3.15;;
29876;SDS011;16750;49.002;9.204;2022-08-11T05:58:40;5.72;;;2.97;;
29876;SDS011;16750;49.002;9.204;2022-08-11T06:01:07;5.20;;;2.80;;
29876;SDS011;16750;49.002;9.204;2022-08-11T06:03:37;7.93;;;3.10;;
29876;SDS011;16750;49.002;9.204;2022-08-11T06:06:26;7.47;;;2.85;;
29876;SDS011;16750;49.002;9.204;2022-08-11T06:08:56;5.25;;;2.58;;
29876;SDS011;16750;49.002;9.204;2022-08-11T06:11:23;7.88;;;2.83;;
29876;SDS011;16750;49.002;9.204;2022-08-11T06:13:50;4.90;;;2.72;;
29876;SDS011;16750;49.002;9.204;2022-08-11T06:16:20;5.82;;;2.90;;
29876;SDS011;16750;49.002;9.204;2022-08-11T06:18:47;8.30;;;3.08;;
29876;SDS011;16750;49.002;9.204;2022-08-11T06:21:13;6.70;;;2.65;;
29876;SDS011;16750;49.002;9.204;2022-08-11T06:23:41;6.90;;;2.50;;
29876;SDS011;16750;49.002;9.204;2022-08-11T06:26:10;4.30;;;2.38;;
29876;SDS011;16750;49.002;9.204;2022-08-11T06:28:38;5.88;;;2.50;;
29876;SDS011;16750;49.002;9.204;2022-08-11T06:31:15;5.88;;;2.80;;
29876;SDS011;16750;49.002;9.204;2022-08-11T06:36:33;6.45;;;2.53;;
29876;SDS011;16750;49.002;9.204;2022-08-11T06:39:09;5.47;;;2.08;;
29876;SDS011;16750;49.002;9.204;2022-08-11T06:45:06;6.57;;;2.42;;
29876;SDS011;16750;49.002;9.204;2022-08-11T06:47:43;7.45;;;2.42;;
29876;SDS011;16750;49.002;9.204;2022-08-11T06:50:14;5.90;;;2.40;;
29876;SDS011;16750;49.002;9.204;2022-08-11T06:53:04;5.25;;;2.30;;
29876;SDS011;16750;49.002;9.204;2022-08-11T06:55:32;5.75;;;2.50;;
29876;SDS011;16750;49.002;9.204;2022-08-11T06:58:18;4.85;;;1.95;;
29876;SDS011;16750;49.002;9.204;2022-08-11T07:01:06;5.30;;;2.00;;
29876;SDS011;16750;49.002;9.204;2022-08-11T07:03:45;5.25;;;2.35;;
29876;SDS011;16750;49.002;9.204;2022-08-11T07:06:27;6.03;;;2.47;;
29876;SDS011;16750;49.002;9.204;2022-08-11T07:09:08;7.82;;;2.10;;
29876;SDS011;16750;49.002;9.204;2022-08-11T07:15:20;5.75;;;2.53;;
29876;SDS011;16750;49.002;9.204;2022-08-11T07:18:13;5.57;;;2.03;;
29876;SDS011;16750;49.002;9.204;2022-08-11T07:21:14;4.43;;;2.30;;
29876;SDS011;16750;49.002;9.204;2022-08-11T07:24:07;3.33;;;2.20;;
29876;SDS011;16750;49.002;9.204;2022-08-11T07:26:55;3.85;;;2.10;;
29876;SDS011;16750;49.002;9.204;2022-08-11T07:29:41;4.80;;;2.15;;
29876;SDS011;16750;49.002;9.204;2022-08-11T07:32:21;5.75;;;1.88;;
29876;SDS011;16750;49.002;9.204;2022-08-11T07:34:54;2.95;;;2.00;;
29876;SDS011;16750;49.002;9.204;2022-08-11T07:37:24;5.55;;;2.05;;
29876;SDS011;16750;49.002;9.204;2022-08-11T07:39:55;3.25;;;2.20;;
29876;SDS011;16750;49.002;9.204;2022-08-11T07:42:26;4.70;;;1.83;;
29876;SDS011;16750;49.002;9.204;2022-08-11T07:44:54;5.35;;;2.00;;
29876;SDS011;16750;49.002;9.204;2022-08-11T07:47:40;5.47;;;2.10;;
29876;SDS011;16750;49.002;9.204;2022-08-11T07:50:25;4.93;;;2.10;;
29876;SDS011;16750;49.002;9.204;2022-08-11T07:53:11;4.05;;;2.25;;
29876;SDS011;16750;49.002;9.204;2022-08-11T07:55:38;6.35;;;2.17;;
29876;SDS011;16750;49.002;9.204;2022-08-11T07:58:05;4.45;;;2.25;;
29876;SDS011;16750;49.002;9.204;2022-08-11T08:00:54;3.15;;;1.98;;
29876;SDS011;16750;49.002;9.204;2022-08-11T08:03:40;4.70;;;2.22;;
29876;SDS011;16750;49.002;9.204;2022-08-11T08:06:26;6.15;;;1.90;;
29876;SDS011;16750;49.002;9.204;2022-08-11T08:09:11;3.95;;;1.80;;
29876;SDS011;16750;49.002;9.204;2022-08-11T08:11:59;4.45;;;1.90;;
29876;SDS011;16750;49.002;9.204;2022-08-11T08:14:44;6.35;;;1.88;;
29876;SDS011;16750;49.002;9.204;2022-08-11T08:17:29;5.50;;;2.00;;
29876;SDS011;16750;49.002;9.204;2022-08-11T08:20:15;5.18;;;1.95;;
29876;SDS011;16750;49.002;9.204;2022-08-11T08:22:44;3.47;;;1.70;;
29876;SDS011;16750;49.002;9.204;2022-08-11T08:25:14;3.92;;;1.92;;
29876;SDS011;16750;49.002;9.204;2022-08-11T08:27:42;5.28;;;2.33;;
29876;SDS011;16750;49.002;9.204;2022-08-11T08:30:09;6.03;;;1.90;;
29876;SDS011;16750;49.002;9.204;2022-08-11T08:32:56;3.88;;;1.92;;
29876;SDS011;16750;49.002;9.204;2022-08-11T08:35:25;4.57;;;1.73;;
29876;SDS011;16750;49.002;9.204;2022-08-11T08:37:50;4.35;;;1.70;;
29876;SDS011;16750;49.002;9.204;2022-08-11T08:40:16;4.68;;;1.90;;
29876;SDS011;16750;49.002;9.204;2022-08-11T08:42:52;4.78;;;1.92;;
29876;SDS011;16750;49.002;9.204;2022-08-11T08:45:21;4.03;;;1.75;;
29876;SDS011;16750;49.002;9.204;2022-08-11T08:47:58;3.03;;;1.70;;
29876;SDS011;16750;49.002;9.204;2022-08-11T08:50:27;3.35;;;1.67;;
29876;SDS011;16750;49.002;9.204;2022-08-11T08:53:17;3.58;;;1.80;;
29876;SDS011;16750;49.002;9.204;2022-08-11T08:55:48;4.72;;;1.45;;
29876;SDS011;16750;49.002;9.204;2022-08-11T08:58:15;3.90;;;1.70;;
29876;SDS011;16750;49.002;9.204;2022-08-11T09:00:44;5.75;;;1.88;;
29876;SDS011;16750;49.002;9.204;2022-08-11T09:03:11;4.10;;;1.60;;
29876;SDS011;16750;49.002;9.204;2022-08-11T09:05:37;1.85;;;1.30;;
29876;SDS011;16750;49.002;9.204;2022-08-11T09:08:04;2.50;;;1.38;;
29876;SDS011;16750;49.002;9.204;2022-08-11T09:10:30;4.25;;;1.70;;
29876;SDS011;16750;49.002;9.204;2022-08-11T09:12:57;3.85;;;1.50;;
29876;SDS011;16750;49.002;9.204;2022-08-11T09:15:24;6.40;;;1.92;;
29876;SDS011;16750;49.002;9.204;2022-08-11T09:17:53;6.03;;;1.80;;
29876;SDS011;16750;49.002;9.204;2022-08-11T09:22:56;5.55;;;1.70;;
29876;SDS011;16750;49.002;9.204;2022-08-11T09:25:41;2.78;;;1.50;;
29876;SDS011;16750;49.002;9.204;2022-08-11T09:30:54;3.83;;;1.67;;
29876;SDS011;16750;49.002;9.204;2022-08-11T09:33:22;4.70;;;1.55;;
29876;SDS011;16750;49.002;9.204;2022-08-11T09:35:50;3.08;;;1.30;;
29876;SDS011;16750;49.002;9.204;2022-08-11T09:38:17;3.83;;;1.40;;
29876;SDS011;16750;49.002;9.204;2022-08-11T09:41:03;2.20;;;1.40;;
29876;SDS011;16750;49.002;9.204;2022-08-11T09:43:32;3.67;;;1.38;;
29876;SDS011;16750;49.002;9.204;2022-08-11T09:46:22;2.17;;;1.25;;
29876;SDS011;16750;49.002;9.204;2022-08-11T09:48:51;4.07;;;1.67;;
29876;SDS011;16750;49.002;9.204;2022-08-11T09:51:19;3.42;;;1.58;;
29876;SDS011;16750;49.002;9.204;2022-08-11T09:53:46;2.47;;;1.33;;
29876;SDS011;16750;49.002;9.204;2022-08-11T09:56:20;4.43;;;1.50;;
29876;SDS011;16750;49.002;9.204;2022-08-11T09:59:07;5.03;;;1.30;;
29876;SDS011;16750;49.002;9.204;2022-08-11T10:01:38;5.53;;;1.45;;
29876;SDS011;16750;49.002;9.204;2022-08-11T10:04:18;2.25;;;1.25;;
29876;SDS011;16750;49.002;9.204;2022-08-11T10:06:51;2.03;;;1.33;;
29876;SDS011;16750;49.002;9.204;2022-08-11T10:09:27;2.58;;;1.30;;
29876;SDS011;16750;49.002;9.204;2022-08-11T10:11:59;5.10;;;1.42;;
29876;SDS011;16750;49.002;9.204;2022-08-11T10:14:27;2.63;;;1.40;;
29876;SDS011;16750;49.002;9.204;2022-08-11T10:17:13;2.88;;;1.60;;
29876;SDS011;16750;49.002;9.204;2022-08-11T10:19:41;2.90;;;1.30;;
29876;SDS011;16750;49.002;9.204;2022-08-11T10:22:09;4.70;;;1.45;;
29876;SDS011;16750;49.002;9.204;2022-08-11T10:25:01;3.90;;;1.30;;
29876;SDS011;16750;49.002;9.204;2022-08-11T10:27:46;2.35;;;1.20;;
29876;SDS011;16750;49.002;9.204;2022-08-11T10:30:20;2.30;;;1.38;;
29876;SDS011;16750;49.002;9.204;2022-08-11T10:35:50;3.97;;;1.20;;
29876;SDS011;16750;49.002;9.204;2022-08-11T10:38:16;3.70;;;1.50;;
29876;SDS011;16750;49.002;9.204;2022-08-11T10:40:44;4.72;;;1.52;;
29876;SDS011;16750;49.002;9.204;2022-08-11T10:43:10;4.60;;;1.50;;
29876;SDS011;16750;49.002;9.204;2022-08-11T10:45:38;3.65;;;1.40;;
29876;SDS011;16750;49.002;9.204;2022-08-11T10:48:25;4.15;;;1.30;;
29876;SDS011;16750;49.002;9.204;2022-08-11T10:50:52;3.92;;;1.38;;
29876;SDS011;16750;49.002;9.204;2022-08-11T10:53:38;4.72;;;1.48;;
29876;SDS011;16750;49.002;9.204;2022-08-11T10:56:29;1.88;;;1.10;;
29876;SDS011;16750;49.002;9.204;2022-08-11T10:59:17;1.48;;;1.13;;
29876;SDS011;16750;49.002;9.204;2022-08-11T11:01:44;4.43;;;1.17;;
29876;SDS011;16750;49.002;9.204;2022-08-11T11:04:14;4.47;;;1.13;;
29876;SDS011;16750;49.002;9.204;2022-08-11T11:09:31;3.90;;;1.20;;
29876;SDS011;16750;49.002;9.204;2022-08-11T11:12:03;2.17;;;1.20;;
29876;SDS011;16750;49.002;9.204;2022-08-11T11:14:52;1.75;;;1.10;;
29876;SDS011;16750;49.002;9.204;2022-08-11T11:23:11;2.40;;;1.40;;
29876;SDS011;16750;49.002;9.204;2022-08-11T11:31:22;1.70;;;1.00;;
29876;SDS011;16750;49.002;9.204;2022-08-11T11:39:18;2.58;;;1.23;;
29876;SDS011;16750;49.002;9.204;2022-08-11T11:41:45;3.88;;;1.10;;
29876;SDS011;16750;49.002;9.204;2022-08-11T11:44:13;3.55;;;1.30;;
29876;SDS011;16750;49.002;9.204;2022-08-11T11:46:39;2.92;;;1.00;;
29876;SDS011;16750;49.002;9.204;2022-08-11T11:49:06;2.40;;;1.05;;
29876;SDS011;16750;49.002;9.204;2022-08-11T11:51:35;2.15;;;1.10;;
29876;SDS011;16750;49.002;9.204;2022-08-11T11:54:01;1.40;;;0.93;;
29876;SDS011;16750;49.002;9.204;2022-08-11T11:56:29;3.28;;;1.17;;
29876;SDS011;16750;49.002;9.204;2022-08-11T11:58:55;2.70;;;1.10;;
29876;SDS011;16750;49.002;9.204;2022-08-11T12:01:40;3.50;;;1.10;;
29876;SDS011;16750;49.002;9.204;2022-08-11T12:04:07;4.05;;;1.30;;
29876;SDS011;16750;49.002;9.204;2022-08-11T12:06:37;1.90;;;1.00;;
29876;SDS011;16750;49.002;9.204;2022-08-11T12:09:03;2.25;;;1.10;;
29876;SDS011;16750;49.002;9.204;2022-08-11T12:11:29;4.72;;;1.17;;
29876;SDS011;16750;49.002;9.204;2022-08-11T12:14:15;1.23;;;0.97;;
29876;SDS011;16750;49.002;9.204;2022-08-11T12:16:43;2.17;;;1.25;;
29876;SDS011;16750;49.002;9.204;2022-08-11T12:19:11;1.98;;;1.15;;
29876;SDS011;16750;49.002;9.204;2022-08-11T12:21:39;2.90;;;1.05;;
29876;SDS011;16750;49.002;9.204;2022-08-11T12:24:24;3.67;;;1.15;;
29876;SDS011;16750;49.002;9.204;2022-08-11T12:27:09;5.82;;;1.23;;
29876;SDS011;16750;49.002;9.204;2022-08-11T12:29:50;1.77;;;0.98;;
29876;SDS011;16750;49.002;9.204;2022-08-11T12:32:18;3.42;;;1.20;;
29876;SDS011;16750;49.002;9.204;2022-08-11T12:34:45;2.13;;;1.02;;
29876;SDS011;16750;49.002;9.204;2022-08-11T12:37:11;3.35;;;0.90;;
29876;SDS011;16750;49.002;9.204;2022-08-11T12:39:42;4.28;;;1.17;;
29876;SDS011;16750;49.002;9.204;2022-08-11T12:42:31;1.95;;;0.95;;
29876;SDS011;16750;49.002;9.204;2022-08-11T12:45:18;2.45;;;1.00;;
29876;SDS011;16750;49.002;9.204;2022-08-11T12:48:36;5.40;;;1.10;;
29876;SDS011;16750;49.002;9.204;2022-08-11T12:51:05;5.72;;;1.17;;
29876;SDS011;16750;49.002;9.204;2022-08-11T12:53:54;3.13;;;0.98;;
29876;SDS011;16750;49.002;9.204;2022-08-11T12:56:24;2.35;;;1.08;;
29876;SDS011;16750;49.002;9.204;2022-08-11T12:59:15;2.13;;;1.00;;
29876;SDS011;16750;49.002;9.204;2022-08-11T13:02:00;2.13;;;1.10;;
29876;SDS011;16750;49.002;9.204;2022-08-11T13:04:45;2.75;;;1.00;;
29876;SDS011;16750;49.002;9.204;2022-08-11T13:07:23;6.50;;;1.10;;
29876;SDS011;16750;49.002;9.204;2022-08-11T13:09:54;2.58;;;1.23;;
29876;SDS011;16750;49.002;9.204;2022-08-11T13:12:22;2.97;;;0.90;;
29876;SDS011;16750;49.002;9.204;2022-08-11T13:15:07;3.70;;;0.82;;
29876;SDS011;16750;49.002;9.204;2022-08-11T13:17:36;2.10;;;1.10;;
29876;SDS011;16750;49.002;9.204;2022-08-11T13:20:03;1.75;;;1.00;;
29876;SDS011;16750;49.002;9.204;2022-08-11T13:22:30;2.97;;;0.98;;
29876;SDS011;16750;49.002;9.204;2022-08-11T13:24:56;1.58;;;0.82;;
29876;SDS011;16750;49.002;9.204;2022-08-11T13:27:22;2.00;;;1.00;;
29876;SDS011;16750;49.002;9.204;2022-08-11T13:29:49;2.15;;;0.90;;
29876;SDS011;16750;49.002;9.204;2022-08-11T13:32:37;3.40;;;0.90;;
29876;SDS011;16750;49.002;9.204;2022-08-11T13:35:04;2.10;;;0.98;;
29876;SDS011;16750;49.002;9.204;2022-08-11T13:37:30;4.88;;;1.10;;
29876;SDS011;16750;49.002;9.204;2022-08-11T13:39:59;2.35;;;1.08;;
29876;SDS011;16750;49.002;9.204;2022-08-11T13:42:26;1.52;;;0.80;;
29876;SDS011;16750;49.002;9.204;2022-08-11T13:44:52;4.07;;;1.02;;
29876;SDS011;16750;49.002;9.204;2022-08-11T13:47:18;1.95;;;0.90;;
29876;SDS011;16750;49.002;9.204;2022-08-11T13:49:47;2.63;;;0.80;;
29876;SDS011;16750;49.002;9.204;2022-08-11T13:52:15;2.03;;;1.08;;
29876;SDS011;16750;49.002;9.204;2022-08-11T13:54:42;2.45;;;0.90;;
29876;SDS011;16750;49.002;9.204;2022-08-11T13:57:10;1.55;;;0.80;;
29876;SDS011;16750;49.002;9.204;2022-08-11T13:59:39;2.58;;;0.77;;
29876;SDS011;16750;49.002;9.204;2022-08-11T14:02:06;4.00;;;1.10;;
29876;SDS011;16750;49.002;9.204;2022-08-11T14:07:24;2.42;;;0.98;;
29876;SDS011;16750;49.002;9.204;2022-08-11T14:09:56;2.35;;;1.10;;
29876;SDS011;16750;49.002;9.204;2022-08-11T14:12:24;3.50;;;1.02;;
29876;SDS011;16750;49.002;9.204;2022-08-11T14:15:15;2.13;;;0.90;;
29876;SDS011;16750;49.002;9.204;2022-08-11T14:17:46;3.67;;;1.00;;
29876;SDS011;16750;49.002;9.204;2022-08-11T14:20:25;2.03;;;1.27;;
29876;SDS011;16750;49.002;9.204;2022-08-11T14:23:13;4.53;;;1.17;;
29876;SDS011;16750;49.002;9.204;2022-08-11T14:25:40;2.75;;;1.10;;
29876;SDS011;16750;49.002;9.204;2022-08-11T14:28:26;4.80;;;1.17;;
29876;SDS011;16750;49.002;9.204;2022-08-11T14:30:52;2.28;;;0.90;;
29876;SDS011;16750;49.002;9.204;2022-08-11T14:33:20;3.72;;;0.93;;
29876;SDS011;16750;49.002;9.204;2022-08-11T14:35:46;2.08;;;1.00;;
29876;SDS011;16750;49.002;9.204;2022-08-11T14:38:12;3.58;;;1.00;;
29876;SDS011;16750;49.002;9.204;2022-08-11T14:40:38;3.88;;;1.20;;
29876;SDS011;16750;49.002;9.204;2022-08-11T14:43:22;3.65;;;1.08;;
29876;SDS011;16750;49.002;9.204;2022-08-11T14:48:52;1.63;;;1.00;;
29876;SDS011;16750;49.002;9.204;2022-08-11T14:51:18;4.10;;;0.93;;
29876;SDS011;16750;49.002;9.204;2022-08-11T14:53:46;1.70;;;0.80;;
29876;SDS011;16750;49.002;9.204;2022-08-11T14:56:12;3.97;;;1.00;;
29876;SDS011;16750;49.002;9.204;2022-08-11T14:58:56;5.93;;;1.70;;
29876;SDS011;16750;49.002;9.204;2022-08-11T15:01:23;2.55;;;0.98;;
29876;SDS011;16750;49.002;9.204;2022-08-11T15:04:08;2.88;;;1.13;;
29876;SDS011;16750;49.002;9.204;2022-08-11T15:06:34;3.10;;;1.00;;
29876;SDS011;16750;49.002;9.204;2022-08-11T15:09:02;2.67;;;1.13;;
29876;SDS011;16750;49.002;9.204;2022-08-11T15:11:29;2.78;;;0.98;;
29876;SDS011;16750;49.002;9.204;2022-08-11T15:14:14;3.90;;;1.08;;
29876;SDS011;16750;49.002;9.204;2022-08-11T15:16:59;2.38;;;0.80;;
29876;SDS011;16750;49.002;9.204;2022-08-11T15:19:32;2.65;;;0.98;;
29876;SDS011;16750;49.002;9.204;2022-08-11T15:21:59;2.80;;;0.98;;
29876;SDS011;16750;49.002;9.204;2022-08-11T15:27:15;2.17;;;1.00;;
29876;SDS011;16750;49.002;9.204;2022-08-11T15:30:02;1.33;;;0.90;;
29876;SDS011;16750;49.002;9.204;2022-08-11T15:32:48;1.13;;;0.80;;
29876;SDS011;16750;49.002;9.204;2022-08-11T15:35:34;2.65;;;1.10;;
29876;SDS011;16750;49.002;9.204;2022-08-11T15:38:21;3.60;;;1.10;;
29876;SDS011;16750;49.002;9.204;2022-08-11T15:40:47;3.25;;;1.10;;
29876;SDS011;16750;49.002;9.204;2022-08-11T15:46:24;3.03;;;1.00;;
29876;SDS011;16750;49.002;9.204;2022-08-11T15:49:02;2.28;;;1.00;;
29876;SDS011;16750;49.002;9.204;2022-08-11T15:51:34;3.47;;;1.13;;
29876;SDS011;16750;49.002;9.204;2022-08-11T15:54:07;2.55;;;0.95;;
29876;SDS011;16750;49.002;9.204;2022-08-11T15:56:39;2.28;;;1.00;;
29876;SDS011;16750;49.002;9.204;2022-08-11T15:59:10;3.53;;;1.15;;
29876;SDS011;16750;49.002;9.204;2022-08-11T16:01:56;5.03;;;1.23;;
29876;SDS011;16750;49.002;9.204;2022-08-11T16:04:55;2.65;;;1.30;;
29876;SDS011;16750;49.002;9.204;2022-08-11T16:07:28;5.00;;;1.02;;
29876;SDS011;16750;49.002;9.204;2022-08-11T16:09:58;2.17;;;1.42;;
29876;SDS011;16750;49.002;9.204;2022-08-11T16:12:29;3.88;;;1.20;;
29876;SDS011;16750;49.002;9.204;2022-08-11T16:14:57;2.90;;;1.00;;
29876;SDS011;16750;49.002;9.204;2022-08-11T16:17:45;1.55;;;1.05;;
29876;SDS011;16750;49.002;9.204;2022-08-11T16:20:15;3.75;;;1.10;;
29876;SDS011;16750;49.002;9.204;2022-08-11T16:22:45;4.35;;;1.30;;
29876;SDS011;16750;49.002;9.204;2022-08-11T16:25:15;3.97;;;1.20;;
29876;SDS011;16750;49.002;9.204;2022-08-11T16:27:50;3.42;;;1.20;;
29876;SDS011;16750;49.002;9.204;2022-08-11T16:30:21;3.92;;;1.10;;
29876;SDS011;16750;49.002;9.204;2022-08-11T16:32:48;2.13;;;1.00;;
29876;SDS011;16750;49.002;9.204;2022-08-11T16:35:18;3.97;;;1.23;;
29876;SDS011;16750;49.002;9.204;2022-08-11T16:38:05;2.55;;;1.00;;
29876;SDS011;16750;49.002;9.204;2022-08-11T16:40:51;2.25;;;1.30;;
29876;SDS011;16750;49.002;9.204;2022-08-11T16:43:19;1.92;;;1.10;;
29876;SDS011;16750;49.002;9.204;2022-08-11T16:46:06;4.93;;;1.48;;
29876;SDS011;16750;49.002;9.204;2022-08-11T16:49:02;1.92;;;1.20;;
29876;SDS011;16750;49.002;9.204;2022-08-11T16:51:30;2.97;;;1.33;;
29876;SDS011;16750;49.002;9.204;2022-08-11T16:53:58;2.05;;;1.00;;
29876;SDS011;16750;49.002;9.204;2022-08-11T16:56:26;3.70;;;1.20;;
29876;SDS011;16750;49.002;9.204;2022-08-11T16:58:54;3.42;;;0.95;;
29876;SDS011;16750;49.002;9.204;2022-08-11T17:01:43;3.05;;;1.00;;
29876;SDS011;16750;49.002;9.204;2022-08-11T17:04:18;3.95;;;1.05;;
29876;SDS011;16750;49.002;9.204;2022-08-11T17:07:23;4.15;;;1.30;;
29876;SDS011;16750;49.002;9.204;2022-08-11T17:10:10;3.00;;;1.08;;
29876;SDS011;16750;49.002;9.204;2022-08-11T17:13:00;2.70;;;1.20;;
29876;SDS011;16750;49.002;9.204;2022-08-11T17:15:34;3.80;;;1.20;;
29876;SDS011;16750;49.002;9.204;2022-08-11T17:18:21;5.13;;;1.35;;
29876;SDS011;16750;49.002;9.204;2022-08-11T17:21:17;3.50;;;1.17;;
29876;SDS011;16750;49.002;9.204;2022-08-11T17:23:58;8.13;;;1.20;;
29876;SDS011;16750;49.002;9.204;2022-08-11T17:26:36;5.22;;;1.00;;
29876;SDS011;16750;49.002;9.204;2022-08-11T17:29:27;3.92;;;1.20;;
29876;SDS011;16750;49.002;9.204;2022-08-11T17:31:54;3.83;;;1.00;;
29876;SDS011;16750;49.002;9.204;2022-08-11T17:34:41;1.90;;;1.00;;
29876;SDS011;16750;49.002;9.204;2022-08-11T17:37:30;3.97;;;1.10;;
29876;SDS011;16750;49.002;9.204;2022-08-11T17:39:59;3.35;;;1.20;;
29876;SDS011;16750;49.002;9.204;2022-08-11T17:42:27;4.35;;;1.25;;
29876;SDS011;16750;49.002;9.204;2022-08-11T17:45:14;5.57;;;1.30;;
29876;SDS011;16750;49.002;9.204;2022-08-11T17:48:00;2.30;;;1.30;;
29876;SDS011;16750;49.002;9.204;2022-08-11T17:50:47;5.88;;;1.63;;
29876;SDS011;16750;49.002;9.204;2022-08-11T17:53:14;5.80;;;1.60;;
29876;SDS011;16750;49.002;9.204;2022-08-11T17:56:03;5.30;;;1.50;;
29876;SDS011;16750;49.002;9.204;2022-08-11T17:58:58;6.68;;;1.50;;
29876;SDS011;16750;49.002;9.204;2022-08-11T18:01:45;8.52;;;1.73;;
29876;SDS011;16750;49.002;9.204;2022-08-11T18:04:12;4.32;;;2.05;;
29876;SDS011;16750;49.002;9.204;2022-08-11T18:06:39;4.55;;;1.48;;
29876;SDS011;16750;49.002;9.204;2022-08-11T18:09:08;5.05;;;1.52;;
29876;SDS011;16750;49.002;9.204;2022-08-11T18:11:55;3.03;;;1.80;;
29876;SDS011;16750;49.002;9.204;2022-08-11T18:14:43;3.50;;;1.50;;
29876;SDS011;16750;49.002;9.204;2022-08-11T18:17:29;6.80;;;1.95;;
29876;SDS011;16750;49.002;9.204;2022-08-11T18:20:15;4.53;;;1.70;;
29876;SDS011;16750;49.002;9.204;2022-08-11T18:23:00;9.57;;;1.85;;
29876;SDS011;16750;49.002;9.204;2022-08-11T18:25:47;4.78;;;1.50;;
29876;SDS011;16750;49.002;9.204;2022-08-11T18:28:38;3.67;;;1.70;;
29876;SDS011;16750;49.002;9.204;2022-08-11T18:31:27;4.70;;;1.98;;
29876;SDS011;16750;49.002;9.204;2022-08-11T18:34:15;4.18;;;1.65;;
29876;SDS011;16750;49.002;9.204;2022-08-11T18:37:09;4.65;;;1.63;;
29876;SDS011;16750;49.002;9.204;2022-08-11T18:40:03;6.40;;;2.10;;
29876;SDS011;16750;49.002;9.204;2022-08-11T18:42:54;4.63;;;1.40;;
29876;SDS011;16750;49.002;9.204;2022-08-11T18:45:41;4.97;;;1.55;;
29876;SDS011;16750;49.002;9.204;2022-08-11T18:48:29;8.82;;;2.15;;
29876;SDS011;16750;49.002;9.204;2022-08-11T18:51:14;6.65;;;1.67;;
29876;SDS011;16750;49.002;9.204;2022-08-11T18:54:01;8.27;;;1.63;;
29876;SDS011;16750;49.002;9.204;2022-08-11T18:56:49;5.03;;;1.65;;
29876;SDS011;16750;49.002;9.204;2022-08-11T18:59:34;9.40;;;1.70;;
29876;SDS011;16750;49.002;9.204;2022-08-11T19:02:24;5.85;;;1.35;;
29876;SDS011;16750;49.002;9.204;2022-08-11T19:05:10;5.35;;;1.67;;